sensor_id;sensor_type;location;lat;lon;timestamp;temperature;humidity
25953;DHT22;13750;50.804;8.764;2022-07-29T00:01:22;20.70;42.90
25953;DHT22;13750;50.804;8.764;2022-07-29T00:03:48;20.70;43.00
25953;DHT22;13750;50.804;8.764;2022-07-29T00:06:15;20.70;43.10
25953;DHT22;13750;50.804;8.764;2022-07-29T00:08:40;20.60;43.00
25953;DHT22;13750;50.804;8.764;2022-07-29T00:11:06;20.60;43.00
25953;DHT22;13750;50.804;8.764;2022-07-29T00:13:32;20.70;43.00
25953;DHT22;13750;50.804;8.764;2022-07-29T00:15:57;20.60;43.10
25953;DHT22;13750;50.804;8.764;2022-07-29T00:18:23;20.60;43.10
25953;DHT22;13750;50.804;8.764;2022-07-29T00:20:48;20.60;42.80
25953;DHT22;13750;50.804;8.764;2022-07-29T00:23:14;20.60;42.90
25953;DHT22;13750;50.804;8.764;2022-07-29T00:25:40;20.60;43.00
25953;DHT22;13750;50.804;8.764;2022-07-29T00:28:05;20.60;43.10
25953;DHT22;13750;50.804;8.764;2022-07-29T00:30:31;20.60;43.10
25953;DHT22;13750;50.804;8.764;2022-07-29T00:32:57;20.60;43.30
25953;DHT22;13750;50.804;8.764;2022-07-29T00:35:23;20.60;43.40
25953;DHT22;13750;50.804;8.764;2022-07-29T00:38:07;20.60;43.40
25953;DHT22;13750;50.804;8.764;2022-07-29T00:40:33;20.60;43.60
25953;DHT22;13750;50.804;8.764;2022-07-29T00:42:59;20.60;43.70
25953;DHT22;13750;50.804;8.764;2022-07-29T00:45:24;20.60;43.60
25953;DHT22;13750;50.804;8.764;2022-07-29T00:47:50;20.60;43.80
25953;DHT22;13750;50.804;8.764;2022-07-29T00:50:16;20.60;43.90
25953;DHT22;13750;50.804;8.764;2022-07-29T00:52:42;20.60;44.00
25953;DHT22;13750;50.804;8.764;2022-07-29T00:55:11;20.60;44.10
25953;DHT22;13750;50.804;8.764;2022-07-29T00:57:38;20.50;44.20
25953;DHT22;13750;50.804;8.764;2022-07-29T01:00:06;20.50;44.30
25953;DHT22;13750;50.804;8.764;2022-07-29T01:02:32;20.50;44.40
25953;DHT22;13750;50.804;8.764;2022-07-29T01:04:57;20.50;44.50
25953;DHT22;13750;50.804;8.764;2022-07-29T01:07:25;20.50;44.50
25953;DHT22;13750;50.804;8.764;2022-07-29T01:09:52;20.40;44.60
25953;DHT22;13750;50.804;8.764;2022-07-29T01:12:23;20.50;44.70
25953;DHT22;13750;50.804;8.764;2022-07-29T01:14:50;20.40;44.80
25953;DHT22;13750;50.804;8.764;2022-07-29T01:20:13;20.40;45.20
25953;DHT22;13750;50.804;8.764;2022-07-29T01:26:07;20.40;45.60
25953;DHT22;13750;50.804;8.764;2022-07-29T01:31:04;20.30;45.80
25953;DHT22;13750;50.804;8.764;2022-07-29T01:33:33;20.30;45.80
25953;DHT22;13750;50.804;8.764;2022-07-29T01:36:27;20.30;45.90
25953;DHT22;13750;50.804;8.764;2022-07-29T01:39:02;20.20;45.90
25953;DHT22;13750;50.804;8.764;2022-07-29T01:41:31;20.20;45.90
25953;DHT22;13750;50.804;8.764;2022-07-29T01:44:05;20.30;46.10
25953;DHT22;13750;50.804;8.764;2022-07-29T01:46:39;20.30;46.70
25953;DHT22;13750;50.804;8.764;2022-07-29T01:49:20;20.20;47.20
25953;DHT22;13750;50.804;8.764;2022-07-29T01:51:50;20.20;47.70
25953;DHT22;13750;50.804;8.764;2022-07-29T01:54:21;20.20;47.90
25953;DHT22;13750;50.804;8.764;2022-07-29T01:56:51;20.20;48.10
25953;DHT22;13750;50.804;8.764;2022-07-29T01:59:19;20.20;48.30
25953;DHT22;13750;50.804;8.764;2022-07-29T02:01:47;20.10;48.40
25953;DHT22;13750;50.804;8.764;2022-07-29T02:04:15;20.10;48.20
25953;DHT22;13750;50.804;8.764;2022-07-29T02:06:42;20.10;48.20
25953;DHT22;13750;50.804;8.764;2022-07-29T02:09:10;20.10;48.10
25953;DHT22;13750;50.804;8.764;2022-07-29T02:11:38;20.10;48.20
25953;DHT22;13750;50.804;8.764;2022-07-29T02:14:06;20.10;48.40
25953;DHT22;13750;50.804;8.764;2022-07-29T02:16:33;20.00;48.50
25953;DHT22;13750;50.804;8.764;2022-07-29T02:19:02;20.00;48.70
25953;DHT22;13750;50.804;8.764;2022-07-29T02:21:30;19.90;48.80
25953;DHT22;13750;50.804;8.764;2022-07-29T02:23:59;19.90;49.10
25953;DHT22;13750;50.804;8.764;2022-07-29T02:26:27;19.90;49.40
25953;DHT22;13750;50.804;8.764;2022-07-29T02:28:54;19.80;49.50
25953;DHT22;13750;50.804;8.764;2022-07-29T02:31:24;19.80;49.70
25953;DHT22;13750;50.804;8.764;2022-07-29T02:33:52;19.80;49.80
25953;DHT22;13750;50.804;8.764;2022-07-29T02:36:21;19.80;49.50
25953;DHT22;13750;50.804;8.764;2022-07-29T02:38:47;19.80;49.20
25953;DHT22;13750;50.804;8.764;2022-07-29T02:41:44;19.80;49.10
25953;DHT22;13750;50.804;8.764;2022-07-29T02:44:19;19.80;49.10
25953;DHT22;13750;50.804;8.764;2022-07-29T02:46:53;19.80;49.10
25953;DHT22;13750;50.804;8.764;2022-07-29T02:52:08;19.70;48.90
25953;DHT22;13750;50.804;8.764;2022-07-29T03:00:04;19.70;48.30
25953;DHT22;13750;50.804;8.764;2022-07-29T03:02:34;19.70;48.40
25953;DHT22;13750;50.804;8.764;2022-07-29T03:05:02;19.60;48.40
25953;DHT22;13750;50.804;8.764;2022-07-29T03:07:28;19.60;48.60
25953;DHT22;13750;50.804;8.764;2022-07-29T03:09:54;19.60;48.90
25953;DHT22;13750;50.804;8.764;2022-07-29T03:12:20;19.60;48.90
25953;DHT22;13750;50.804;8.764;2022-07-29T03:14:47;19.60;49.10
25953;DHT22;13750;50.804;8.764;2022-07-29T03:17:14;19.60;49.20
25953;DHT22;13750;50.804;8.764;2022-07-29T03:19:40;19.50;49.30
25953;DHT22;13750;50.804;8.764;2022-07-29T03:22:07;19.40;49.20
25953;DHT22;13750;50.804;8.764;2022-07-29T03:24:35;19.40;49.30
25953;DHT22;13750;50.804;8.764;2022-07-29T03:27:01;19.40;49.50
25953;DHT22;13750;50.804;8.764;2022-07-29T03:29:27;19.40;49.50
25953;DHT22;13750;50.804;8.764;2022-07-29T03:31:53;19.40;49.50
25953;DHT22;13750;50.804;8.764;2022-07-29T03:34:19;19.40;49.50
25953;DHT22;13750;50.804;8.764;2022-07-29T03:36:46;19.40;49.90
25953;DHT22;13750;50.804;8.764;2022-07-29T03:39:13;19.30;50.20
25953;DHT22;13750;50.804;8.764;2022-07-29T03:41:41;19.30;50.20
25953;DHT22;13750;50.804;8.764;2022-07-29T03:44:07;19.30;50.30
25953;DHT22;13750;50.804;8.764;2022-07-29T03:46:35;19.20;50.40
25953;DHT22;13750;50.804;8.764;2022-07-29T03:49:03;19.10;50.20
25953;DHT22;13750;50.804;8.764;2022-07-29T03:51:30;19.10;50.10
25953;DHT22;13750;50.804;8.764;2022-07-29T03:53:56;19.10;50.20
25953;DHT22;13750;50.804;8.764;2022-07-29T03:56:23;19.10;50.20
25953;DHT22;13750;50.804;8.764;2022-07-29T03:58:51;19.10;50.00
25953;DHT22;13750;50.804;8.764;2022-07-29T04:01:18;19.10;50.00
25953;DHT22;13750;50.804;8.764;2022-07-29T04:03:44;19.10;49.90
25953;DHT22;13750;50.804;8.764;2022-07-29T04:06:13;19.10;49.60
25953;DHT22;13750;50.804;8.764;2022-07-29T04:08:39;19.10;49.60
25953;DHT22;13750;50.804;8.764;2022-07-29T04:11:05;19.10;49.50
25953;DHT22;13750;50.804;8.764;2022-07-29T04:13:31;19.10;49.60
25953;DHT22;13750;50.804;8.764;2022-07-29T04:15:57;19.10;49.60
25953;DHT22;13750;50.804;8.764;2022-07-29T04:18:23;19.10;49.40
25953;DHT22;13750;50.804;8.764;2022-07-29T04:20:49;19.20;49.50
25953;DHT22;13750;50.804;8.764;2022-07-29T04:23:15;19.20;49.40
25953;DHT22;13750;50.804;8.764;2022-07-29T04:25:41;19.20;49.40
25953;DHT22;13750;50.804;8.764;2022-07-29T04:28:08;19.20;49.50
25953;DHT22;13750;50.804;8.764;2022-07-29T04:30:34;19.20;49.40
25953;DHT22;13750;50.804;8.764;2022-07-29T04:33:01;19.20;49.30
25953;DHT22;13750;50.804;8.764;2022-07-29T04:35:28;19.30;49.30
25953;DHT22;13750;50.804;8.764;2022-07-29T04:37:54;19.20;49.30
25953;DHT22;13750;50.804;8.764;2022-07-29T04:40:20;19.30;49.30
25953;DHT22;13750;50.804;8.764;2022-07-29T04:42:46;19.30;49.40
25953;DHT22;13750;50.804;8.764;2022-07-29T04:45:11;19.30;49.50
25953;DHT22;13750;50.804;8.764;2022-07-29T04:47:37;19.30;49.60
25953;DHT22;13750;50.804;8.764;2022-07-29T04:50:03;19.30;49.90
25953;DHT22;13750;50.804;8.764;2022-07-29T04:52:30;19.30;50.50
25953;DHT22;13750;50.804;8.764;2022-07-29T04:54:56;19.30;51.10
25953;DHT22;13750;50.804;8.764;2022-07-29T04:57:21;19.40;51.60
25953;DHT22;13750;50.804;8.764;2022-07-29T04:59:47;19.40;51.50
25953;DHT22;13750;50.804;8.764;2022-07-29T05:02:14;19.40;51.70
25953;DHT22;13750;50.804;8.764;2022-07-29T05:04:39;19.30;51.90
25953;DHT22;13750;50.804;8.764;2022-07-29T05:07:05;19.30;52.10
25953;DHT22;13750;50.804;8.764;2022-07-29T05:09:30;19.30;52.80
25953;DHT22;13750;50.804;8.764;2022-07-29T05:11:57;19.40;53.70
25953;DHT22;13750;50.804;8.764;2022-07-29T05:14:25;19.30;54.50
25953;DHT22;13750;50.804;8.764;2022-07-29T05:16:51;19.30;55.10
25953;DHT22;13750;50.804;8.764;2022-07-29T05:19:18;19.30;55.20
25953;DHT22;13750;50.804;8.764;2022-07-29T05:21:44;19.20;54.70
25953;DHT22;13750;50.804;8.764;2022-07-29T05:24:10;19.20;54.40
25953;DHT22;13750;50.804;8.764;2022-07-29T05:26:36;19.10;53.70
25953;DHT22;13750;50.804;8.764;2022-07-29T05:29:02;19.10;53.30
25953;DHT22;13750;50.804;8.764;2022-07-29T05:31:28;19.10;53.20
25953;DHT22;13750;50.804;8.764;2022-07-29T05:33:53;19.00;53.50
25953;DHT22;13750;50.804;8.764;2022-07-29T05:36:19;19.00;53.70
25953;DHT22;13750;50.804;8.764;2022-07-29T05:38:44;19.00;53.20
25953;DHT22;13750;50.804;8.764;2022-07-29T05:41:10;19.00;53.10
25953;DHT22;13750;50.804;8.764;2022-07-29T05:43:36;19.00;53.30
25953;DHT22;13750;50.804;8.764;2022-07-29T05:46:02;18.90;53.60
25953;DHT22;13750;50.804;8.764;2022-07-29T05:48:27;19.00;53.90
25953;DHT22;13750;50.804;8.764;2022-07-29T05:50:53;18.90;54.00
25953;DHT22;13750;50.804;8.764;2022-07-29T05:53:19;19.00;54.10
25953;DHT22;13750;50.804;8.764;2022-07-29T05:55:45;18.90;54.50
25953;DHT22;13750;50.804;8.764;2022-07-29T05:58:11;19.00;55.00
25953;DHT22;13750;50.804;8.764;2022-07-29T06:00:36;19.00;55.40
25953;DHT22;13750;50.804;8.764;2022-07-29T06:03:02;19.10;55.90
25953;DHT22;13750;50.804;8.764;2022-07-29T06:05:28;19.00;56.10
25953;DHT22;13750;50.804;8.764;2022-07-29T06:07:53;19.00;56.20
25953;DHT22;13750;50.804;8.764;2022-07-29T06:10:20;19.00;56.00
25953;DHT22;13750;50.804;8.764;2022-07-29T06:12:46;19.00;56.00
25953;DHT22;13750;50.804;8.764;2022-07-29T06:15:11;19.00;55.90
25953;DHT22;13750;50.804;8.764;2022-07-29T06:17:37;19.00;55.50
25953;DHT22;13750;50.804;8.764;2022-07-29T06:20:03;19.10;55.10
25953;DHT22;13750;50.804;8.764;2022-07-29T06:22:29;19.00;55.20
25953;DHT22;13750;50.804;8.764;2022-07-29T06:24:55;18.90;55.50
25953;DHT22;13750;50.804;8.764;2022-07-29T06:27:21;18.90;55.70
25953;DHT22;13750;50.804;8.764;2022-07-29T06:29:46;18.90;55.80
25953;DHT22;13750;50.804;8.764;2022-07-29T06:32:12;18.90;55.90
25953;DHT22;13750;50.804;8.764;2022-07-29T06:34:38;18.90;56.10
25953;DHT22;13750;50.804;8.764;2022-07-29T06:37:07;18.90;56.30
25953;DHT22;13750;50.804;8.764;2022-07-29T06:39:35;18.80;56.50
25953;DHT22;13750;50.804;8.764;2022-07-29T06:42:02;18.80;56.80
25953;DHT22;13750;50.804;8.764;2022-07-29T06:44:28;18.90;57.10
25953;DHT22;13750;50.804;8.764;2022-07-29T06:46:55;18.90;57.00
25953;DHT22;13750;50.804;8.764;2022-07-29T06:49:21;18.90;56.90
25953;DHT22;13750;50.804;8.764;2022-07-29T06:51:47;18.90;57.00
25953;DHT22;13750;50.804;8.764;2022-07-29T06:54:12;18.90;56.80
25953;DHT22;13750;50.804;8.764;2022-07-29T06:56:38;18.90;56.90
25953;DHT22;13750;50.804;8.764;2022-07-29T06:59:10;19.00;56.80
25953;DHT22;13750;50.804;8.764;2022-07-29T07:01:40;19.00;56.80
25953;DHT22;13750;50.804;8.764;2022-07-29T07:04:07;19.00;56.90
25953;DHT22;13750;50.804;8.764;2022-07-29T07:06:40;19.00;56.90
25953;DHT22;13750;50.804;8.764;2022-07-29T07:09:06;19.10;57.00
25953;DHT22;13750;50.804;8.764;2022-07-29T07:11:34;19.10;56.90
25953;DHT22;13750;50.804;8.764;2022-07-29T07:14:00;19.10;57.00
25953;DHT22;13750;50.804;8.764;2022-07-29T07:16:25;19.10;57.00
25953;DHT22;13750;50.804;8.764;2022-07-29T07:18:51;19.10;57.10
25953;DHT22;13750;50.804;8.764;2022-07-29T07:21:16;19.10;57.40
25953;DHT22;13750;50.804;8.764;2022-07-29T07:23:42;19.10;57.70
25953;DHT22;13750;50.804;8.764;2022-07-29T07:26:07;19.20;57.70
25953;DHT22;13750;50.804;8.764;2022-07-29T07:28:33;19.20;57.80
25953;DHT22;13750;50.804;8.764;2022-07-29T07:30:59;19.20;58.30
25953;DHT22;13750;50.804;8.764;2022-07-29T07:33:24;19.30;58.80
25953;DHT22;13750;50.804;8.764;2022-07-29T07:35:50;19.30;59.00
25953;DHT22;13750;50.804;8.764;2022-07-29T07:38:16;19.40;59.20
25953;DHT22;13750;50.804;8.764;2022-07-29T07:40:41;19.40;59.40
25953;DHT22;13750;50.804;8.764;2022-07-29T07:43:07;19.40;59.40
25953;DHT22;13750;50.804;8.764;2022-07-29T07:45:33;19.40;59.30
25953;DHT22;13750;50.804;8.764;2022-07-29T07:47:59;19.40;59.40
25953;DHT22;13750;50.804;8.764;2022-07-29T07:50:24;19.40;59.50
25953;DHT22;13750;50.804;8.764;2022-07-29T07:52:53;19.40;59.60
25953;DHT22;13750;50.804;8.764;2022-07-29T07:55:20;19.40;59.70
25953;DHT22;13750;50.804;8.764;2022-07-29T07:57:46;19.40;59.80
25953;DHT22;13750;50.804;8.764;2022-07-29T08:00:13;19.50;59.70
25953;DHT22;13750;50.804;8.764;2022-07-29T08:02:40;19.50;59.80
25953;DHT22;13750;50.804;8.764;2022-07-29T08:05:08;19.50;59.80
25953;DHT22;13750;50.804;8.764;2022-07-29T08:07:33;19.60;59.90
25953;DHT22;13750;50.804;8.764;2022-07-29T08:09:59;19.60;59.90
25953;DHT22;13750;50.804;8.764;2022-07-29T08:12:25;19.60;59.90
25953;DHT22;13750;50.804;8.764;2022-07-29T08:14:50;19.70;59.90
25953;DHT22;13750;50.804;8.764;2022-07-29T08:17:16;19.70;60.10
25953;DHT22;13750;50.804;8.764;2022-07-29T08:19:42;19.80;60.20
25953;DHT22;13750;50.804;8.764;2022-07-29T08:22:07;19.80;60.10
25953;DHT22;13750;50.804;8.764;2022-07-29T08:24:33;19.80;60.30
25953;DHT22;13750;50.804;8.764;2022-07-29T08:27:17;19.80;60.50
25953;DHT22;13750;50.804;8.764;2022-07-29T08:29:43;19.90;60.60
25953;DHT22;13750;50.804;8.764;2022-07-29T08:32:08;19.90;60.80
25953;DHT22;13750;50.804;8.764;2022-07-29T08:34:34;19.90;60.60
25953;DHT22;13750;50.804;8.764;2022-07-29T08:37:00;20.00;60.70
25953;DHT22;13750;50.804;8.764;2022-07-29T08:39:25;20.10;60.70
25953;DHT22;13750;50.804;8.764;2022-07-29T08:41:52;20.10;60.60
25953;DHT22;13750;50.804;8.764;2022-07-29T08:44:19;20.10;60.50
25953;DHT22;13750;50.804;8.764;2022-07-29T08:46:45;20.10;60.50
25953;DHT22;13750;50.804;8.764;2022-07-29T08:49:11;20.20;60.50
25953;DHT22;13750;50.804;8.764;2022-07-29T08:51:39;20.20;60.50
25953;DHT22;13750;50.804;8.764;2022-07-29T08:54:05;20.20;60.50
25953;DHT22;13750;50.804;8.764;2022-07-29T08:56:32;20.20;60.60
25953;DHT22;13750;50.804;8.764;2022-07-29T09:08:51;20.30;61.30
25953;DHT22;13750;50.804;8.764;2022-07-29T09:12:12;20.40;61.30
25953;DHT22;13750;50.804;8.764;2022-07-29T09:14:54;20.40;61.50
25953;DHT22;13750;50.804;8.764;2022-07-29T09:17:41;20.50;61.60
25953;DHT22;13750;50.804;8.764;2022-07-29T09:20:54;20.50;61.70
25953;DHT22;13750;50.804;8.764;2022-07-29T09:26:52;20.70;61.90
25953;DHT22;13750;50.804;8.764;2022-07-29T09:29:50;20.80;62.10
25953;DHT22;13750;50.804;8.764;2022-07-29T09:32:58;20.90;62.20
25953;DHT22;13750;50.804;8.764;2022-07-29T09:35:37;21.00;62.00
25953;DHT22;13750;50.804;8.764;2022-07-29T09:38:15;21.00;61.80
25953;DHT22;13750;50.804;8.764;2022-07-29T09:41:03;21.10;61.80
25953;DHT22;13750;50.804;8.764;2022-07-29T09:43:29;21.10;61.70
25953;DHT22;13750;50.804;8.764;2022-07-29T09:45:54;21.20;61.70
25953;DHT22;13750;50.804;8.764;2022-07-29T09:48:23;21.20;61.70
25953;DHT22;13750;50.804;8.764;2022-07-29T09:50:49;21.30;61.60
25953;DHT22;13750;50.804;8.764;2022-07-29T09:53:35;21.40;61.30
25953;DHT22;13750;50.804;8.764;2022-07-29T09:56:03;21.40;61.20
25953;DHT22;13750;50.804;8.764;2022-07-29T09:58:31;21.40;61.10
25953;DHT22;13750;50.804;8.764;2022-07-29T10:00:59;21.50;61.10
25953;DHT22;13750;50.804;8.764;2022-07-29T10:03:25;21.50;61.20
25953;DHT22;13750;50.804;8.764;2022-07-29T10:06:11;21.60;61.40
25953;DHT22;13750;50.804;8.764;2022-07-29T10:08:38;21.60;61.30
25953;DHT22;13750;50.804;8.764;2022-07-29T10:11:11;21.70;61.10
25953;DHT22;13750;50.804;8.764;2022-07-29T10:13:48;21.70;61.10
25953;DHT22;13750;50.804;8.764;2022-07-29T10:16:15;21.80;61.10
25953;DHT22;13750;50.804;8.764;2022-07-29T10:18:43;21.80;61.00
25953;DHT22;13750;50.804;8.764;2022-07-29T10:21:09;21.90;61.00
25953;DHT22;13750;50.804;8.764;2022-07-29T10:23:38;21.90;60.80
25953;DHT22;13750;50.804;8.764;2022-07-29T10:26:05;22.00;61.00
25953;DHT22;13750;50.804;8.764;2022-07-29T10:28:33;22.00;60.90
25953;DHT22;13750;50.804;8.764;2022-07-29T10:31:04;22.00;60.60
25953;DHT22;13750;50.804;8.764;2022-07-29T10:33:47;22.10;60.50
25953;DHT22;13750;50.804;8.764;2022-07-29T10:36:54;22.10;60.50
25953;DHT22;13750;50.804;8.764;2022-07-29T10:39:42;22.10;60.60
25953;DHT22;13750;50.804;8.764;2022-07-29T10:42:21;22.20;60.60
25953;DHT22;13750;50.804;8.764;2022-07-29T10:44:52;22.20;60.70
25953;DHT22;13750;50.804;8.764;2022-07-29T10:47:26;22.30;60.80
25953;DHT22;13750;50.804;8.764;2022-07-29T10:49:58;22.40;60.70
25953;DHT22;13750;50.804;8.764;2022-07-29T10:52:25;22.40;60.60
25953;DHT22;13750;50.804;8.764;2022-07-29T10:55:34;22.50;60.80
25953;DHT22;13750;50.804;8.764;2022-07-29T10:58:16;22.60;60.70
25953;DHT22;13750;50.804;8.764;2022-07-29T11:00:41;22.60;60.50
25953;DHT22;13750;50.804;8.764;2022-07-29T11:03:10;22.60;60.70
25953;DHT22;13750;50.804;8.764;2022-07-29T11:05:56;22.60;60.60
25953;DHT22;13750;50.804;8.764;2022-07-29T11:08:22;22.70;60.50
25953;DHT22;13750;50.804;8.764;2022-07-29T11:10:50;22.60;60.30
25953;DHT22;13750;50.804;8.764;2022-07-29T11:16:07;22.70;60.10
25953;DHT22;13750;50.804;8.764;2022-07-29T11:18:32;22.80;60.00
25953;DHT22;13750;50.804;8.764;2022-07-29T11:20:58;22.80;59.90
25953;DHT22;13750;50.804;8.764;2022-07-29T11:23:29;22.80;59.90
25953;DHT22;13750;50.804;8.764;2022-07-29T11:37:17;22.90;58.40
25953;DHT22;13750;50.804;8.764;2022-07-29T11:44:58;22.90;58.00
25953;DHT22;13750;50.804;8.764;2022-07-29T11:47:26;22.90;58.00
25953;DHT22;13750;50.804;8.764;2022-07-29T11:49:54;22.90;58.00
25953;DHT22;13750;50.804;8.764;2022-07-29T11:52:20;22.90;57.90
25953;DHT22;13750;50.804;8.764;2022-07-29T11:54:50;22.90;57.30
25953;DHT22;13750;50.804;8.764;2022-07-29T11:57:18;23.00;56.50
25953;DHT22;13750;50.804;8.764;2022-07-29T11:59:46;23.00;56.20
25953;DHT22;13750;50.804;8.764;2022-07-29T12:02:13;23.00;55.80
25953;DHT22;13750;50.804;8.764;2022-07-29T12:04:51;23.00;55.80
25953;DHT22;13750;50.804;8.764;2022-07-29T12:07:18;23.00;55.90
25953;DHT22;13750;50.804;8.764;2022-07-29T12:09:52;23.00;56.00
25953;DHT22;13750;50.804;8.764;2022-07-29T12:12:18;23.10;55.70
25953;DHT22;13750;50.804;8.764;2022-07-29T12:14:47;23.10;54.60
25953;DHT22;13750;50.804;8.764;2022-07-29T12:17:32;23.10;54.60
25953;DHT22;13750;50.804;8.764;2022-07-29T12:20:00;23.20;54.70
25953;DHT22;13750;50.804;8.764;2022-07-29T12:22:29;23.20;54.90
25953;DHT22;13750;50.804;8.764;2022-07-29T12:24:55;23.20;54.80
25953;DHT22;13750;50.804;8.764;2022-07-29T12:27:22;23.30;54.80
25953;DHT22;13750;50.804;8.764;2022-07-29T12:29:57;23.30;54.60
25953;DHT22;13750;50.804;8.764;2022-07-29T12:32:30;23.40;54.60
25953;DHT22;13750;50.804;8.764;2022-07-29T12:34:56;23.40;54.70
25953;DHT22;13750;50.804;8.764;2022-07-29T12:37:22;23.40;54.60
25953;DHT22;13750;50.804;8.764;2022-07-29T12:39:47;23.50;54.60
25953;DHT22;13750;50.804;8.764;2022-07-29T12:42:15;23.50;54.50
25953;DHT22;13750;50.804;8.764;2022-07-29T12:44:49;23.60;54.30
25953;DHT22;13750;50.804;8.764;2022-07-29T12:47:15;23.60;53.80
25953;DHT22;13750;50.804;8.764;2022-07-29T12:49:41;23.60;53.60
25953;DHT22;13750;50.804;8.764;2022-07-29T12:54:53;23.60;52.90
25953;DHT22;13750;50.804;8.764;2022-07-29T12:57:19;23.60;53.20
25953;DHT22;13750;50.804;8.764;2022-07-29T13:00:05;23.60;53.00
25953;DHT22;13750;50.804;8.764;2022-07-29T13:02:33;23.60;53.10
25953;DHT22;13750;50.804;8.764;2022-07-29T13:05:00;23.60;53.70
25953;DHT22;13750;50.804;8.764;2022-07-29T13:07:31;23.70;53.60
25953;DHT22;13750;50.804;8.764;2022-07-29T13:10:15;23.70;53.50
25953;DHT22;13750;50.804;8.764;2022-07-29T13:13:04;23.70;53.40
25953;DHT22;13750;50.804;8.764;2022-07-29T13:15:30;23.70;53.60
25953;DHT22;13750;50.804;8.764;2022-07-29T13:17:56;23.80;53.20
25953;DHT22;13750;50.804;8.764;2022-07-29T13:20:25;23.70;53.10
25953;DHT22;13750;50.804;8.764;2022-07-29T13:22:52;23.70;53.20
25953;DHT22;13750;50.804;8.764;2022-07-29T13:25:29;23.70;53.20
25953;DHT22;13750;50.804;8.764;2022-07-29T13:27:55;23.70;53.50
25953;DHT22;13750;50.804;8.764;2022-07-29T13:30:22;23.70;53.40
25953;DHT22;13750;50.804;8.764;2022-07-29T13:32:48;23.70;53.20
25953;DHT22;13750;50.804;8.764;2022-07-29T13:35:14;23.70;53.10
25953;DHT22;13750;50.804;8.764;2022-07-29T13:37:39;23.70;53.10
25953;DHT22;13750;50.804;8.764;2022-07-29T13:40:06;23.60;53.10
25953;DHT22;13750;50.804;8.764;2022-07-29T13:42:32;23.70;53.20
25953;DHT22;13750;50.804;8.764;2022-07-29T13:44:59;23.60;53.30
25953;DHT22;13750;50.804;8.764;2022-07-29T13:47:25;23.60;53.40
25953;DHT22;13750;50.804;8.764;2022-07-29T13:49:50;23.60;53.50
25953;DHT22;13750;50.804;8.764;2022-07-29T13:52:17;23.70;53.70
25953;DHT22;13750;50.804;8.764;2022-07-29T13:54:43;23.80;53.60
25953;DHT22;13750;50.804;8.764;2022-07-29T13:57:09;23.80;53.70
25953;DHT22;13750;50.804;8.764;2022-07-29T13:59:38;23.90;53.40
25953;DHT22;13750;50.804;8.764;2022-07-29T14:02:04;23.90;53.40
25953;DHT22;13750;50.804;8.764;2022-07-29T14:04:31;23.90;53.30
25953;DHT22;13750;50.804;8.764;2022-07-29T14:06:59;23.90;53.20
25953;DHT22;13750;50.804;8.764;2022-07-29T14:09:27;24.00;53.10
25953;DHT22;13750;50.804;8.764;2022-07-29T14:11:56;24.00;53.10
25953;DHT22;13750;50.804;8.764;2022-07-29T14:14:21;24.10;53.00
25953;DHT22;13750;50.804;8.764;2022-07-29T14:16:47;24.20;52.60
25953;DHT22;13750;50.804;8.764;2022-07-29T14:19:13;24.30;52.10
25953;DHT22;13750;50.804;8.764;2022-07-29T14:21:39;24.40;51.80
25953;DHT22;13750;50.804;8.764;2022-07-29T14:24:13;24.50;51.60
25953;DHT22;13750;50.804;8.764;2022-07-29T14:26:42;24.50;51.50
25953;DHT22;13750;50.804;8.764;2022-07-29T14:29:07;24.40;51.40
25953;DHT22;13750;50.804;8.764;2022-07-29T14:31:33;24.50;51.20
25953;DHT22;13750;50.804;8.764;2022-07-29T14:33:58;24.50;51.30
25953;DHT22;13750;50.804;8.764;2022-07-29T14:36:24;24.40;51.50
25953;DHT22;13750;50.804;8.764;2022-07-29T14:38:50;24.40;51.60
25953;DHT22;13750;50.804;8.764;2022-07-29T14:41:15;24.40;51.60
25953;DHT22;13750;50.804;8.764;2022-07-29T14:43:41;24.30;51.70
25953;DHT22;13750;50.804;8.764;2022-07-29T14:46:06;24.30;51.60
25953;DHT22;13750;50.804;8.764;2022-07-29T14:48:33;24.30;51.50
25953;DHT22;13750;50.804;8.764;2022-07-29T14:50:58;24.30;51.40
25953;DHT22;13750;50.804;8.764;2022-07-29T14:53:24;24.20;51.40
25953;DHT22;13750;50.804;8.764;2022-07-29T14:55:50;24.30;51.50
25953;DHT22;13750;50.804;8.764;2022-07-29T14:58:15;24.20;51.60
25953;DHT22;13750;50.804;8.764;2022-07-29T15:00:41;24.10;51.80
25953;DHT22;13750;50.804;8.764;2022-07-29T15:03:07;24.10;51.90
25953;DHT22;13750;50.804;8.764;2022-07-29T15:05:35;24.10;52.10
25953;DHT22;13750;50.804;8.764;2022-07-29T15:08:01;24.10;52.20
25953;DHT22;13750;50.804;8.764;2022-07-29T15:10:26;24.10;52.30
25953;DHT22;13750;50.804;8.764;2022-07-29T15:12:55;24.10;52.40
25953;DHT22;13750;50.804;8.764;2022-07-29T15:15:24;24.10;52.80
25953;DHT22;13750;50.804;8.764;2022-07-29T15:17:49;24.00;52.90
25953;DHT22;13750;50.804;8.764;2022-07-29T15:20:18;24.00;53.00
25953;DHT22;13750;50.804;8.764;2022-07-29T15:22:43;24.00;52.90
25953;DHT22;13750;50.804;8.764;2022-07-29T15:25:09;24.00;52.80
25953;DHT22;13750;50.804;8.764;2022-07-29T15:27:35;24.00;52.80
25953;DHT22;13750;50.804;8.764;2022-07-29T15:30:10;24.00;52.80
25953;DHT22;13750;50.804;8.764;2022-07-29T15:32:36;23.90;52.80
25953;DHT22;13750;50.804;8.764;2022-07-29T15:35:04;23.90;52.70
25953;DHT22;13750;50.804;8.764;2022-07-29T15:37:30;23.90;52.70
25953;DHT22;13750;50.804;8.764;2022-07-29T15:39:56;23.90;52.80
25953;DHT22;13750;50.804;8.764;2022-07-29T15:42:21;23.90;52.80
25953;DHT22;13750;50.804;8.764;2022-07-29T15:44:47;23.90;52.80
25953;DHT22;13750;50.804;8.764;2022-07-29T15:47:12;23.90;52.90
25953;DHT22;13750;50.804;8.764;2022-07-29T15:49:40;23.90;53.10
25953;DHT22;13750;50.804;8.764;2022-07-29T15:52:08;23.90;53.10
25953;DHT22;13750;50.804;8.764;2022-07-29T15:54:38;23.80;53.20
25953;DHT22;13750;50.804;8.764;2022-07-29T15:57:05;23.80;53.30
25953;DHT22;13750;50.804;8.764;2022-07-29T15:59:32;23.80;53.60
25953;DHT22;13750;50.804;8.764;2022-07-29T16:01:58;23.80;53.80
25953;DHT22;13750;50.804;8.764;2022-07-29T16:04:25;23.80;53.90
25953;DHT22;13750;50.804;8.764;2022-07-29T16:06:50;23.80;53.90
25953;DHT22;13750;50.804;8.764;2022-07-29T16:09:16;23.80;54.10
25953;DHT22;13750;50.804;8.764;2022-07-29T16:11:42;23.80;53.90
25953;DHT22;13750;50.804;8.764;2022-07-29T16:14:08;23.80;53.80
25953;DHT22;13750;50.804;8.764;2022-07-29T16:16:36;23.90;54.00
25953;DHT22;13750;50.804;8.764;2022-07-29T16:19:02;23.90;54.20
25953;DHT22;13750;50.804;8.764;2022-07-29T16:21:28;23.90;54.60
25953;DHT22;13750;50.804;8.764;2022-07-29T16:23:56;23.90;54.80
25953;DHT22;13750;50.804;8.764;2022-07-29T16:26:22;23.90;55.00
25953;DHT22;13750;50.804;8.764;2022-07-29T16:28:48;23.90;55.30
25953;DHT22;13750;50.804;8.764;2022-07-29T16:31:14;23.90;55.50